createdAt,value
2022-09-05T00:00:23.751Z,99114.31
2022-09-05T00:03:21.298Z,99113.03
2022-09-05T00:06:14.952Z,99125.03
2022-09-05T00:09:07.547Z,99128.81
2022-09-05T00:11:47.497Z,99132.41
2022-09-05T00:14:15.952Z,99146.69
2022-09-05T00:18:01.578Z,99140.53
2022-09-05T00:24:22.998Z,99148.66
2022-09-05T00:24:31.031Z,99155.78
2022-09-05T00:26:57.215Z,99164.47
2022-09-05T00:30:48.633Z,99163.16
2022-09-05T00:32:49.165Z,99174.66
2022-09-05T00:35:54.036Z,99175.66
2022-09-05T00:38:36.444Z,99173.84
2022-09-05T00:41:15.128Z,99180.22
2022-09-05T00:43:49.601Z,99184.03
2022-09-05T00:46:28.148Z,99185.53
2022-09-05T00:49:12.870Z,99190.09
2022-09-05T00:52:01.794Z,99198.03
2022-09-05T00:54:42.336Z,99200.31
2022-09-05T00:57:43.474Z,99205.41
2022-09-05T01:00:34.769Z,99207.69
2022-09-05T01:03:24.973Z,99221.97
2022-09-05T01:06:18.629Z,99227.81
2022-09-05T01:09:07.582Z,99222.75
2022-09-05T01:12:06.918Z,99237.78
2022-09-05T01:14:41.188Z,99236.50
2022-09-05T01:17:25.049Z,99237.25
2022-09-05T01:20:19.348Z,99241.59
2022-09-05T01:23:37.983Z,99242.38
2022-09-05T01:26:12.336Z,99243.13
2022-09-05T01:29:16.446Z,99252.34
2022-09-05T01:32:16.466Z,99257.44
2022-09-05T01:35:03.221Z,99262.53
2022-09-05T01:38:01.930Z,99262.53
2022-09-05T01:40:48.356Z,99259.19
2022-09-05T01:44:04.938Z,99259.41
2022-09-05T01:46:41.266Z,99266.78
2022-09-05T01:49:35.734Z,99276.00
2022-09-05T01:52:34.845Z,99263.44
2022-09-05T01:55:27.391Z,99268.53
2022-09-05T01:58:04.757Z,99275.69
2022-09-05T02:00:51.678Z,99265.19
2022-09-05T02:03:35.118Z,99270.81
2022-09-05T02:06:25.163Z,99277.75
2022-09-05T02:09:15.927Z,99265.94
2022-09-05T02:12:00.895Z,99261.31
2022-09-05T02:14:55.329Z,99265.88
2022-09-05T02:17:51.228Z,99265.56
2022-09-05T02:20:35.290Z,99261.19
2022-09-05T02:23:41.056Z,99258.81
2022-09-05T02:26:17.649Z,99262.31
2022-09-05T02:29:08.352Z,99264.84
2022-09-05T02:31:53.573Z,99267.88
2022-09-05T02:34:43.886Z,99271.13
2022-09-05T02:38:43.928Z,99261.66
2022-09-05T02:45:09.515Z,99268.28
2022-09-05T02:45:20.533Z,99264.41
2022-09-05T02:47:23.639Z,99262.06
2022-09-05T02:53:59.224Z,99266.59
2022-09-05T02:57:37.964Z,99259.16
2022-09-05T02:58:06.325Z,99253.75
2022-09-05T02:59:59.037Z,99253.19
2022-09-05T03:02:55.382Z,99244.75
2022-09-05T03:05:30.197Z,99236.53
2022-09-05T03:08:01.381Z,99234.69
2022-09-05T03:10:55.017Z,99234.91
2022-09-05T03:13:53.924Z,99235.16
2022-09-05T03:16:46.947Z,99226.16
2022-09-05T03:19:50.149Z,99224.09
2022-09-05T03:22:37.865Z,99221.00
2022-09-05T03:25:06.352Z,99211.25
2022-09-05T03:27:52.908Z,99210.19
2022-09-05T03:30:29.232Z,99213.22
2022-09-05T03:33:24.113Z,99223.94
2022-09-05T03:36:23.153Z,99222.09
2022-09-05T03:39:24.993Z,99213.88
2022-09-05T03:42:14.730Z,99216.16
2022-09-05T03:45:08.894Z,99214.84
2022-09-05T03:48:28.312Z,99215.84
2022-09-05T03:57:12.858Z,99207.38
2022-09-05T03:57:15.049Z,99209.66
2022-09-05T03:57:36.949Z,99198.59
2022-09-05T04:00:23.457Z,99201.13
2022-09-05T04:08:07.676Z,99199.84
2022-09-05T04:08:18.077Z,99182.41
2022-09-05T04:09:37.102Z,99171.91
2022-09-05T04:12:18.872Z,99177.97
2022-09-05T04:14:57.013Z,99172.56
2022-09-05T04:17:45.155Z,99172.78
2022-09-05T04:20:19.544Z,99179.38
2022-09-05T04:23:13.745Z,99176.25
2022-09-05T04:26:11.491Z,99174.41
2022-09-05T04:28:56.984Z,99170.50
2022-09-05T04:31:48.322Z,99164.53
2022-09-05T04:34:27.919Z,99154.25
2022-09-05T04:37:08.321Z,99151.13
2022-09-05T04:39:38.183Z,99154.38
2022-09-05T04:42:06.810Z,99144.06
2022-09-05T04:44:55.833Z,99148.81
2022-09-05T04:47:36.927Z,99146.44
2022-09-05T04:50:18.704Z,99136.88
2022-09-05T04:53:06.974Z,99145.78
2022-09-05T04:55:58.940Z,99138.31
2022-09-05T05:00:07.582Z,99130.59
2022-09-05T05:06:01.210Z,99131.38
2022-09-05T05:06:20.302Z,99124.41
2022-09-05T05:07:40.596Z,99110.78
2022-09-05T05:11:56.216Z,99101.97
2022-09-05T05:17:54.817Z,99092.28
2022-09-05T05:18:14.075Z,99079.59
2022-09-05T05:19:42.947Z,99072.31
2022-09-05T05:22:19.470Z,99064.66
2022-09-05T05:24:57.250Z,99051.94
2022-09-05T05:27:35.516Z,99046.38
2022-09-05T05:30:10.505Z,99040.81
2022-09-05T05:32:45.465Z,99028.09
2022-09-05T05:35:20.070Z,99027.00
2022-09-05T05:38:19.559Z,99018.56
2022-09-05T05:41:22.100Z,99012.81
2022-09-05T05:43:52.855Z,99009.81
2022-09-05T05:46:35.947Z,98997.41
2022-09-05T05:49:34.802Z,98988.25
2022-09-05T05:52:14.965Z,98979.41
2022-09-05T05:55:48.861Z,98978.53
2022-09-05T05:58:17.166Z,98963.69
2022-09-05T06:01:08.609Z,98962.00
2022-09-05T06:03:53.585Z,98951.09
2022-09-05T06:06:55.749Z,98952.28
2022-09-05T06:14:52.792Z,98947.22
2022-09-05T06:14:57.128Z,98948.78
2022-09-05T06:15:59.094Z,98939.94
2022-09-05T06:19:03.008Z,98936.53
2022-09-05T06:22:14.986Z,98937.09
2022-09-05T06:24:54.831Z,98932.78
2022-09-05T06:28:17.954Z,98937.09
2022-09-05T06:31:29.386Z,98938.44
2022-09-05T06:34:33.244Z,98936.38
2022-09-05T06:37:28.095Z,98935.25
2022-09-05T06:40:18.249Z,98927.91
2022-09-05T06:42:58.612Z,98934.88
2022-09-05T06:45:58.991Z,98928.47
2022-09-05T06:49:28.292Z,98927.53
2022-09-05T06:51:44.979Z,98917.34
2022-09-05T06:54:36.824Z,98907.34
2022-09-05T06:57:22.819Z,98907.91
2022-09-05T07:00:03.369Z,98901.50
2022-09-05T07:02:59.415Z,98896.59
2022-09-05T07:05:44.893Z,98888.13
2022-09-05T07:08:36.128Z,98889.06
2022-09-05T07:11:37.541Z,98876.06
2022-09-05T07:14:32.224Z,98861.38
2022-09-05T07:17:17.781Z,98863.88
2022-09-05T07:20:01.963Z,98855.38
2022-09-05T07:22:48.401Z,98861.03
2022-09-05T07:25:27.341Z,98858.00
2022-09-05T07:28:29.056Z,98851.19
2022-09-05T07:31:11.395Z,98852.13
2022-09-05T07:33:42.026Z,98846.28
2022-09-05T07:36:33.382Z,98848.94
2022-09-05T07:39:27.571Z,98834.03
2022-09-05T07:41:59.583Z,98814.25
2022-09-05T07:44:36.471Z,98812.19
2022-09-05T07:47:08.513Z,98799.00
2022-09-05T07:49:51.863Z,98783.00
2022-09-05T07:56:50.434Z,98776.97
2022-09-05T07:57:09.947Z,98769.81
2022-09-05T07:58:42.755Z,98762.28
2022-09-05T08:01:15.950Z,98758.69
2022-09-05T08:03:47.482Z,98755.28
2022-09-05T08:07:14.314Z,98764.72
2022-09-05T08:10:06.596Z,98778.47
2022-09-05T08:12:27.605Z,98776.00
2022-09-05T08:15:10.222Z,98776.38
2022-09-05T08:18:11.796Z,98775.44
2022-09-05T08:21:12.542Z,98770.38
2022-09-05T08:24:25.395Z,98778.84
2022-09-05T08:27:06.118Z,98768.66
2022-09-05T08:30:24.904Z,98784.09
2022-09-05T08:33:03.427Z,98790.66
2022-09-05T08:36:02.604Z,98811.91
2022-09-05T08:38:40.521Z,98821.63
2022-09-05T08:41:50.271Z,98826.81
2022-09-05T08:46:39.789Z,98826.50
2022-09-05T08:47:55.795Z,98821.88
2022-09-05T08:50:36.319Z,98820.13
2022-09-05T08:53:26.899Z,98818.56
2022-09-05T08:56:26.615Z,98804.19
2022-09-05T08:59:28.524Z,98798.34
2022-09-05T09:02:47.873Z,98807.16
2022-09-05T09:06:11.973Z,98810.84
2022-09-05T09:08:53.530Z,98809.34
2022-09-05T09:11:36.709Z,98805.44
2022-09-05T09:14:36.560Z,98803.16
2022-09-05T09:17:44.987Z,98795.69
2022-09-05T09:20:32.087Z,98791.88
2022-09-05T09:23:06.596Z,98789.81
2022-09-05T09:26:19.684Z,98789.50
2022-09-05T09:29:22.039Z,98781.03
2022-09-05T09:32:17.972Z,98784.81
2022-09-05T09:34:53.244Z,98785.00
2022-09-05T09:37:50.396Z,98780.13
2022-09-05T09:41:00.891Z,98786.31
2022-09-05T09:43:53.135Z,98782.94
2022-09-05T09:46:44.601Z,98777.09
2022-09-05T09:50:01.882Z,98786.13
2022-09-05T09:52:45.390Z,98786.13
2022-09-05T09:55:42.120Z,98795.13
2022-09-05T09:58:19.324Z,98800.34
2022-09-05T10:01:20.171Z,98808.78
2022-09-05T10:10:40.137Z,98824.19
2022-09-05T10:10:57.450Z,98833.22
2022-09-05T10:14:49.890Z,98844.19
2022-09-05T10:17:30.279Z,98846.41
2022-09-05T10:20:12.062Z,98849.94
2022-09-05T10:22:50.207Z,98858.09
2022-09-05T10:25:49.942Z,98861.59
2022-09-05T10:28:27.178Z,98864.34
2022-09-05T10:32:20.737Z,98864.47
2022-09-05T10:35:14.037Z,98855.88
2022-09-05T10:37:15.442Z,98858.06
2022-09-05T10:39:52.070Z,98862.13
2022-09-05T10:42:38.563Z,98860.19
2022-09-05T10:45:48.425Z,98860.66
2022-09-05T10:48:29.564Z,98871.88
2022-09-05T10:51:02.261Z,98872.22
2022-09-05T10:53:51.936Z,98877.38
2022-09-05T10:56:29.903Z,98885.00
2022-09-05T10:59:33.160Z,98894.38
2022-09-05T11:02:22.309Z,98901.16
2022-09-05T11:05:29.758Z,98902.09
2022-09-05T11:08:20.361Z,98899.59
2022-09-05T11:10:53.227Z,98918.03
2022-09-05T11:13:47.130Z,98925.81
2022-09-05T11:16:39.943Z,98944.47
2022-09-05T11:19:24.922Z,98942.75
2022-09-05T11:22:22.516Z,98938.19
2022-09-05T11:24:59.814Z,98945.09
2022-09-05T11:27:31.349Z,98948.66
2022-09-05T11:30:29.926Z,98956.34
2022-09-05T11:36:20.248Z,98954.28
2022-09-05T11:39:59.999Z,98953.75
2022-09-05T11:40:08.283Z,98953.22
2022-09-05T11:43:03.027Z,98953.97
2022-09-05T11:45:56.503Z,98969.53
2022-09-05T11:48:27.692Z,98967.50
2022-09-05T11:51:35.698Z,98956.03
2022-09-05T11:54:27.745Z,98967.25
2022-09-05T11:57:33.091Z,98962.94
2022-09-05T12:00:46.027Z,98974.72
2022-09-05T12:03:59.259Z,98970.38
2022-09-05T12:06:55.932Z,98976.00
2022-09-05T12:09:53.555Z,98982.38
2022-09-05T12:12:41.561Z,98985.94
2022-09-05T12:15:29.287Z,98992.31
2022-09-05T12:18:01.771Z,99010.47
2022-09-05T12:20:37.509Z,99004.09
2022-09-05T12:24:00.049Z,99006.66
2022-09-05T12:27:41.087Z,98999.28
2022-09-05T12:30:06.221Z,99006.72
2022-09-05T12:36:01.333Z,99011.53
2022-09-05T12:36:09.705Z,99017.47
2022-09-05T12:40:56.977Z,99032.03
2022-09-05T12:42:20.704Z,99025.66
2022-09-05T12:45:10.646Z,99035.38
2022-09-05T12:47:57.811Z,99036.66
2022-09-05T12:50:56.017Z,99049.19
2022-09-05T12:53:26.113Z,99035.16
2022-09-05T12:57:06.522Z,99036.44
2022-09-05T13:02:56.547Z,99045.41
2022-09-05T13:03:07.759Z,99046.69
2022-09-05T13:04:52.573Z,99046.69
2022-09-05T13:07:45.165Z,99050.03
2022-09-05T13:14:44.721Z,99049.25
2022-09-05T13:15:02.800Z,99052.06
2022-09-05T13:16:33.208Z,99053.59
2022-09-05T13:19:10.135Z,99053.59
2022-09-05T13:21:53.780Z,99058.44
2022-09-05T13:24:35.302Z,99057.69
2022-09-05T13:27:16.481Z,99068.16
2022-09-05T13:31:12.375Z,99068.16
2022-09-05T13:38:01.011Z,99070.97
2022-09-05T13:38:19.872Z,99074.53
2022-09-05T13:39:04.956Z,99075.53
2022-09-05T13:41:51.326Z,99083.94
2022-09-05T13:44:25.035Z,99095.94
2022-09-05T13:47:00.583Z,99096.69
2022-09-05T13:50:05.229Z,99095.41
2022-09-05T13:52:47.573Z,99096.94
2022-09-05T13:55:45.985Z,99102.03
2022-09-05T13:58:35.337Z,99107.13
2022-09-05T14:01:32.848Z,99121.91
2022-09-05T14:07:46.510Z,99128.53
2022-09-05T14:10:24.444Z,99128.53
2022-09-05T14:13:16.539Z,99134.91
2022-09-05T14:15:58.961Z,99127.25
2022-09-05T14:18:27.687Z,99124.44
2022-09-05T14:21:16.866Z,99122.38
2022-09-05T14:24:04.936Z,99129.53
2022-09-05T14:26:47.154Z,99131.81
2022-09-05T14:29:15.575Z,99129.03
2022-09-05T14:37:36.152Z,99122.13
2022-09-05T14:37:49.607Z,99117.25
2022-09-05T14:38:27.436Z,99124.69
2022-09-05T14:41:17.131Z,99135.41
2022-09-05T14:44:06.445Z,99142.53
2022-09-05T14:47:35.497Z,99144.06
2022-09-05T14:50:28.656Z,99150.47
2022-09-05T14:57:23.068Z,99138.69
2022-09-05T15:02:43.267Z,99126.16
2022-09-05T15:02:50.347Z,99123.38
2022-09-05T15:05:11.566Z,99121.09
2022-09-05T15:08:18.297Z,99122.59
2022-09-05T15:12:21.502Z,99114.19
2022-09-05T15:14:09.150Z,99119.25
2022-09-05T15:16:44.485Z,99112.34
2022-09-05T15:19:15.147Z,99119.25
2022-09-05T15:21:43.720Z,99108.03
2022-09-05T15:24:31.249Z,99105.97
2022-09-05T15:27:05.472Z,99104.69
2022-09-05T15:29:36.617Z,99104.91
2022-09-05T15:32:24.393Z,99109.25
2022-09-05T15:34:55.888Z,99113.56
2022-09-05T15:37:38.159Z,99111.75
2022-09-05T15:40:22.511Z,99097.72
2022-09-05T15:42:59.138Z,99105.63
2022-09-05T15:45:32.930Z,99098.69
2022-09-05T15:48:08.145Z,99102.28
2022-09-05T15:50:58.929Z,99100.22
2022-09-05T15:53:39.689Z,99112.97
2022-09-05T15:56:11.293Z,99113.50
2022-09-05T15:59:01.642Z,99112.97
2022-09-05T16:01:59.120Z,99122.94
2022-09-05T16:07:39.651Z,99120.88
2022-09-05T16:10:48.418Z,99134.94
2022-09-05T16:10:57.934Z,99130.81
2022-09-05T16:13:45.850Z,99132.13
2022-09-05T16:23:11.644Z,99120.13
2022-09-05T16:23:17.215Z,99131.34
2022-09-05T16:23:27.594Z,99129.09
2022-09-05T16:25:10.940Z,99115.78
2022-09-05T16:28:04.999Z,99121.94
2022-09-05T16:30:39.123Z,99119.88
2022-09-05T16:33:25.596Z,99121.19
2022-09-05T16:36:17.116Z,99128.09
2022-09-05T16:38:59.695Z,99133.72
2022-09-05T16:41:49.162Z,99137.03
2022-09-05T16:44:36.737Z,99141.16
2022-09-05T16:47:14.988Z,99140.38
2022-09-05T16:49:57.356Z,99140.91
2022-09-05T16:52:54.276Z,99136.06
2022-09-05T16:55:55.448Z,99129.16
2022-09-05T16:58:33.790Z,99119.44
2022-09-05T17:01:32.774Z,99116.63
2022-09-05T17:04:31.132Z,99115.84
2022-09-05T17:07:17.995Z,99112.28
2022-09-05T17:09:47.524Z,99110.25
2022-09-05T17:12:26.706Z,99106.66
2022-09-05T17:15:04.245Z,99105.16
2022-09-05T17:18:20.442Z,99095.19
2022-09-05T17:20:38.101Z,99086.78
2022-09-05T17:29:15.721Z,99080.41
2022-09-05T17:29:30.407Z,99071.97
2022-09-05T17:32:57.249Z,99058.44
2022-09-05T17:35:59.522Z,99054.13
2022-09-05T17:38:49.997Z,99053.38
2022-09-05T17:41:44.231Z,99045.69
2022-09-05T17:44:21.801Z,99043.41
2022-09-05T17:46:59.366Z,99037.81
2022-09-05T17:49:48.220Z,99043.41
2022-09-05T17:52:23.965Z,99039.84
2022-09-05T17:54:55.286Z,99033.47
2022-09-05T17:57:29.983Z,99015.09
2022-09-05T18:00:11.261Z,99017.66
2022-09-05T18:02:57.646Z,99016.13
2022-09-05T18:06:04.915Z,99015.16
2022-09-05T18:14:34.971Z,98997.81
2022-09-05T18:17:36.332Z,98999.09
2022-09-05T18:19:57.864Z,99005.47
2022-09-05T18:22:32.124Z,99012.63
2022-09-05T18:25:32.192Z,99011.09
2022-09-05T18:28:52.872Z,99011.84
2022-09-05T18:31:41.507Z,99019.00
2022-09-05T18:34:20.239Z,99017.69
2022-09-05T18:36:56.007Z,99015.66
2022-09-05T18:39:40.284Z,99024.84
2022-09-05T18:42:25.692Z,99028.94
2022-09-05T18:45:03.554Z,99032.50
2022-09-05T18:47:51.148Z,99032.28
2022-09-05T18:50:35.211Z,99031.50
2022-09-05T18:53:13.020Z,99029.22
2022-09-05T18:56:12.518Z,99035.38
2022-09-05T18:59:24.371Z,99024.16
2022-09-05T19:02:04.579Z,99016.47
2022-09-05T19:04:43.992Z,99018.31
2022-09-05T19:07:26.023Z,99025.97
2022-09-05T19:10:35.514Z,99017.53
2022-09-05T19:13:00.261Z,99012.69
2022-09-05T19:15:33.279Z,99008.59
2022-09-05T19:18:26.903Z,99002.97
2022-09-05T19:21:18.837Z,99003.72
2022-09-05T19:23:55.449Z,99010.09
2022-09-05T19:26:25.443Z,99012.16
2022-09-05T19:34:44.102Z,99008.06
2022-09-05T19:36:46.815Z,99019.28
2022-09-05T19:36:50.326Z,99021.56
2022-09-05T19:37:44.499Z,99029.22
2022-09-05T19:47:34.630Z,99037.66
2022-09-05T19:47:38.378Z,99026.97
2022-09-05T19:47:47.750Z,99031.06
2022-09-05T19:49:13.447Z,99026.97
2022-09-05T19:51:43.707Z,99017.00
2022-09-05T19:54:33.190Z,99015.50
2022-09-05T19:57:04.627Z,99011.94
2022-09-05T19:59:40.210Z,99010.63
2022-09-05T20:02:15.476Z,99019.06
2022-09-05T20:04:59.401Z,99022.63
2022-09-05T20:07:30.166Z,99023.16
2022-09-05T20:10:02.470Z,99023.16
2022-09-05T20:12:38.495Z,99011.16
2022-09-05T20:15:19.433Z,99016.78
2022-09-05T20:17:49.133Z,99013.22
2022-09-05T20:20:28.201Z,99021.63
2022-09-05T20:23:03.672Z,99021.63
2022-09-05T20:25:43.598Z,99017.31
2022-09-05T20:28:21.773Z,99002.50
2022-09-05T20:31:02.882Z,98998.94
2022-09-05T20:33:44.757Z,98994.84
2022-09-05T20:43:08.621Z,99002.50
2022-09-05T20:43:15.899Z,98989.22
2022-09-05T20:43:16.678Z,98995.59
2022-09-05T20:44:53.499Z,98990.75
2022-09-05T20:54:10.060Z,98990.75
2022-09-05T20:54:14.765Z,98999.19
2022-09-05T20:54:18.859Z,98998.63
2022-09-05T20:56:32.008Z,99005.53
2022-09-05T20:59:01.956Z,98998.41
2022-09-05T21:01:33.723Z,99006.59
2022-09-05T21:04:07.186Z,99009.19
2022-09-05T21:06:38.460Z,99014.03
2022-09-05T21:09:26.284Z,99017.63
2022-09-05T21:11:59.959Z,99022.47
2022-09-05T21:14:30.564Z,99024.50
2022-09-05T21:17:15.169Z,99019.66
2022-09-05T21:19:54.230Z,99025.28
2022-09-05T21:22:24.778Z,99032.94
2022-09-05T21:25:19.883Z,99035.00
2022-09-05T21:28:23.501Z,99035.00
2022-09-05T21:31:15.801Z,99027.31
2022-09-05T21:33:46.221Z,99034.22
2022-09-05T21:36:16.875Z,99036.50
2022-09-05T21:38:45.814Z,99032.19
2022-09-05T21:41:17.934Z,99030.13
2022-09-05T21:47:35.464Z,99030.13
2022-09-05T21:47:48.686Z,99021.72
2022-09-05T21:49:27.052Z,99006.91
2022-09-05T21:51:56.097Z,99000.31
2022-09-05T21:59:16.356Z,99001.81
2022-09-05T21:59:21.636Z,98988.31
2022-09-05T22:00:18.676Z,98996.75
2022-09-05T22:02:49.998Z,98998.25
2022-09-05T22:05:18.796Z,99000.31
2022-09-05T22:07:49.581Z,98998.25
2022-09-05T22:10:18.277Z,98996.97
2022-09-05T22:12:47.001Z,99001.28
2022-09-05T22:15:27.391Z,99003.34
2022-09-05T22:18:16.162Z,99007.44
2022-09-05T22:21:24.667Z,99009.72
2022-09-05T22:23:41.637Z,99010.25
2022-09-05T22:26:10.177Z,99006.69
2022-09-05T22:28:47.255Z,99011.00
2022-09-05T22:31:17.575Z,99011.00
2022-09-05T22:33:50.820Z,99013.06
2022-09-05T22:36:20.043Z,99018.66
2022-09-05T22:38:48.765Z,99025.06
2022-09-05T22:41:17.393Z,99029.91
2022-09-05T22:43:47.389Z,99032.19
2022-09-05T22:46:16.832Z,99030.66
2022-09-05T22:48:45.468Z,99034.22
2022-09-05T22:51:14.337Z,99038.56
2022-09-05T22:53:42.871Z,99041.38
2022-09-05T22:56:11.805Z,99042.88
2022-09-05T22:58:46.635Z,99046.44
2022-09-05T23:01:15.241Z,99059.72
2022-09-05T23:03:43.973Z,99052.84
2022-09-05T23:06:12.667Z,99059.19
2022-09-05T23:08:41.423Z,99062.00
2022-09-05T23:11:15.551Z,99066.34
2022-09-05T23:13:44.490Z,99064.28
2022-09-05T23:16:13.069Z,99069.38
2022-09-05T23:18:41.893Z,99068.84
2022-09-05T23:21:13.378Z,99071.13
2022-09-05T23:23:42.865Z,99064.22
2022-09-05T23:26:14.198Z,99072.66
2022-09-05T23:28:44.353Z,99075.69
2022-09-05T23:31:13.968Z,99086.94
2022-09-05T23:33:44.391Z,99086.41
2022-09-05T23:36:17.783Z,99084.34
2022-09-05T23:38:46.553Z,99089.44
2022-09-05T23:41:16.837Z,99090.97
2022-09-05T23:43:45.404Z,99098.88
2022-09-05T23:46:14.335Z,99091.22
2022-09-05T23:48:42.954Z,99097.59
2022-09-05T23:51:13.511Z,99098.63
2022-09-05T23:53:42.342Z,99097.31
2022-09-05T23:56:12.313Z,99110.06
2022-09-05T23:58:41.188Z,99115.16
